Flugplatz Hölleberg

Für EDVL sind keine METAR/TAF Berichte vorhanden.
Es werden die Flugwettermeldungen vom Flugplatz Kassel-Calden in 22 km Entfernung angezeigt.

Prognose für EDVK

vom 22.03. um 17:00 UTC

Zwischen 18:00 UTC und 03:00 UTC

Wind 4 kt aus 170°

Sichtweite 10 km oder mehr

keine signifikanten Wettererscheinungen

keine Wolken

TAF EDVK 221700Z 2218/2303 17004KT CAVOK
Impressum